Potecasi, North Carolina
Current Conditions -  °F | °C
As of 11:55 AM on Friday 28 Nov 2014 (Local Time) from KASJ Reporting Station
Clear Clear  
Wind Chill: 37°   Ceiling: Unl
Heat Index: 40°   Visibility: 10mi
Dew Point: 22°   Wind: 5mph
Humidity: 48%   Direction: 350°N
Pressure: 30.32"   Gusts: NA
Location:  36.36°N, 77.24°W
Report Text: KASJ 281655Z AUTO 35004KT 10SM CLR 05/M06 A3032 RMK AO2 T00461056
Loading
Personal Weather Stations






























Interactive Weather Map New forecast layout! Learn more

10-Day Weather Forecast

Advertisements
Track Severe Weather on mobile